Time;durP1;ratioP1;P1;durP2;ratioP2;P2;SDS_P1;SDS_P2;PMS_P1;PMS_P2;Temp;Humidity;BMP_temperature;BMP_pressure;BME280_temperature;BME280_humidity;BME280_pressure;Samples;Min_cycle;Max_cycle;Signal;HPM_P1;HPM_P2
2021/12/25 00:00:15;;;;;;;2.10;1.55;;;;;;;;;;5032372;28;20534;-82
2021/12/25 00:02:41;;;;;;;3.08;1.80;;;;;;;;;;5017300;28;20108;-82
2021/12/25 00:05:08;;;;;;;3.55;1.70;;;;;;;;;;5017293;28;20491;-80
2021/12/25 00:07:34;;;;;;;1.65;1.40;;;;;;;;;;5015647;28;20033;-79
2021/12/25 00:10:00;;;;;;;2.20;1.65;;;;;;;;;;5016818;28;20467;-80
2021/12/25 00:12:25;;;;;;;2.03;1.63;;;;;;;;;;5016872;28;20026;-81
2021/12/25 00:14:50;;;;;;;4.10;1.60;;;;;;;;;;5016714;28;20025;-79
2021/12/25 00:17:16;;;;;;;1.85;1.52;;;;;;;;;;5017180;28;20107;-79
2021/12/25 00:19:43;;;;;;;2.15;1.55;;;;;;;;;;5017132;28;20053;-79
2021/12/25 00:22:08;;;;;;;2.35;1.67;;;;;;;;;;5016320;28;20109;-81
2021/12/25 00:24:33;;;;;;;2.92;1.67;;;;;;;;;;5031891;28;20053;-80
2021/12/25 00:27:06;;;;;;;2.53;1.45;;;;;;;;;;5014883;28;20108;-80
2021/12/25 00:29:52;;;;;;;3.80;1.93;;;;;;;;;;5031873;28;20049;-80
2021/12/25 00:34:45;;;;;;;2.50;1.83;;;;;;;;;;5017183;28;20048;-80
2021/12/25 00:37:11;;;;;;;3.95;1.88;;;;;;;;;;5016548;28;20030;-79
2021/12/25 00:39:36;;;;;;;1.98;1.50;;;;;;;;;;5017152;28;20088;-80
2021/12/25 00:42:04;;;;;;;2.25;1.70;;;;;;;;;;5016747;28;20026;-79
2021/12/25 00:44:29;;;;;;;2.50;1.42;;;;;;;;;;5015431;28;20022;-80
2021/12/25 00:46:55;;;;;;;2.50;1.95;;;;;;;;;;5013907;28;20028;-78
2021/12/25 00:49:21;;;;;;;3.85;1.90;;;;;;;;;;5014409;28;20018;-80
2021/12/25 00:51:46;;;;;;;6.03;1.85;;;;;;;;;;5015372;28;20088;-79
2021/12/25 00:54:13;;;;;;;4.80;1.63;;;;;;;;;;5015588;28;20037;-80
2021/12/25 00:56:38;;;;;;;2.40;1.50;;;;;;;;;;5016326;28;20025;-80
2021/12/25 00:59:03;;;;;;;2.70;1.77;;;;;;;;;;5015315;28;20105;-80
2021/12/25 01:01:29;;;;;;;3.63;2.05;;;;;;;;;;5015388;28;20026;-80
2021/12/25 01:03:55;;;;;;;2.83;1.63;;;;;;;;;;5015648;28;20029;-80
2021/12/25 01:06:20;;;;;;;2.72;1.73;;;;;;;;;;5015600;28;20053;-80
2021/12/25 01:08:45;;;;;;;2.65;1.70;;;;;;;;;;5015456;28;20026;-79
2021/12/25 01:11:10;;;;;;;2.85;1.95;;;;;;;;;;5015394;28;20109;-80
2021/12/25 01:13:42;;;;;;;2.70;1.98;;;;;;;;;;5030149;28;20168;-79
2021/12/25 01:16:53;;;;;;;2.70;1.73;;;;;;;;;;5014637;28;20251;-78
2021/12/25 01:34:35;;;;;;;1.38;1.00;;;;;;;;;;5015104;28;20113;-79
2021/12/25 01:37:06;;;;;;;0.98;0.88;;;;;;;;;;5015194;28;20042;-79
2021/12/25 01:42:09;;;;;;;1.25;1.05;;;;;;;;;;5015041;28;20364;-78
2021/12/25 01:49:55;;;;;;;1.77;1.10;;;;;;;;;;5015751;28;20041;-80
2021/12/25 01:52:26;;;;;;;1.52;1.00;;;;;;;;;;5015375;28;20030;-80
2021/12/25 01:54:53;;;;;;;1.95;1.00;;;;;;;;;;5015033;28;20029;-80
2021/12/25 01:57:19;;;;;;;1.63;1.00;;;;;;;;;;5014781;28;20030;-80
2021/12/25 01:59:44;;;;;;;1.30;0.93;;;;;;;;;;5014936;28;20030;-80
2021/12/25 02:02:09;;;;;;;1.33;0.82;;;;;;;;;;5029775;28;20029;-80
2021/12/25 02:04:35;;;;;;;1.23;1.00;;;;;;;;;;5015405;28;20128;-80
2021/12/25 02:07:01;;;;;;;1.95;0.95;;;;;;;;;;5014987;28;20060;-80
2021/12/25 02:09:27;;;;;;;1.30;0.90;;;;;;;;;;5015090;28;20471;-80
2021/12/25 02:11:52;;;;;;;1.23;0.63;;;;;;;;;;5032079;28;20392;-80
2021/12/25 02:14:18;;;;;;;0.85;0.80;;;;;;;;;;5018223;28;20032;-80
2021/12/25 02:16:57;;;;;;;1.83;1.15;;;;;;;;;;5016406;28;20022;-80
2021/12/25 02:19:44;;;;;;;1.73;0.93;;;;;;;;;;5017618;28;20527;-80
2021/12/25 02:22:11;;;;;;;0.63;0.60;;;;;;;;;;5018022;28;20025;-79
2021/12/25 02:24:37;;;;;;;2.10;0.50;;;;;;;;;;5016890;28;20022;-79
2021/12/25 02:27:04;;;;;;;3.08;0.50;;;;;;;;;;5034363;28;20076;-79
2021/12/25 02:29:31;;;;;;;0.50;0.50;;;;;;;;;;5017794;28;20499;-80
2021/12/25 02:31:58;;;;;;;0.90;0.65;;;;;;;;;;5017763;28;20037;-80
2021/12/25 02:34:24;;;;;;;0.60;0.60;;;;;;;;;;5017975;28;20022;-79
2021/12/25 02:36:49;;;;;;;3.33;0.80;;;;;;;;;;5017723;28;20068;-80
2021/12/25 02:39:15;;;;;;;0.35;0.35;;;;;;;;;;5018389;28;20044;-80
2021/12/25 02:41:41;;;;;;;2.03;0.90;;;;;;;;;;5017953;28;20041;-80
2021/12/25 02:44:06;;;;;;;0.70;0.57;;;;;;;;;;5033038;28;20022;-80
2021/12/25 02:46:32;;;;;;;0.40;0.40;;;;;;;;;;5017740;28;20391;-80
2021/12/25 02:48:59;;;;;;;0.93;0.60;;;;;;;;;;5033055;28;20521;-80
2021/12/25 02:51:24;;;;;;;1.65;0.60;;;;;;;;;;5018018;28;20030;-80
2021/12/25 02:53:49;;;;;;;1.65;0.57;;;;;;;;;;5017104;28;20407;-79
2021/12/25 02:56:15;;;;;;;0.75;0.38;;;;;;;;;;5017269;28;20025;-79
2021/12/25 02:58:40;;;;;;;1.98;0.60;;;;;;;;;;5017632;28;20518;-79
2021/12/25 03:01:10;;;;;;;1.20;0.70;;;;;;;;;;5017863;28;20026;-79
2021/12/25 03:03:35;;;;;;;2.38;0.63;;;;;;;;;;5016778;28;20087;-79
2021/12/25 03:06:03;;;;;;;0.30;0.25;;;;;;;;;;5017166;28;20034;-77
2021/12/25 03:08:29;;;;;;;2.95;0.20;;;;;;;;;;5017376;28;20480;-80
2021/12/25 03:10:55;;;;;;;0.88;0.52;;;;;;;;;;5032905;28;20022;-79
2021/12/25 03:16:00;;;;;;;2.45;0.80;;;;;;;;;;5017659;28;20123;-79
2021/12/25 03:18:29;;;;;;;1.35;0.65;;;;;;;;;;5017415;28;20483;-79
2021/12/25 03:20:58;;;;;;;0.73;0.40;;;;;;;;;;5017272;28;20040;-78
2021/12/25 03:23:26;;;;;;;0.63;0.60;;;;;;;;;;5017365;28;20026;-80
2021/12/25 03:25:54;;;;;;;1.55;0.75;;;;;;;;;;5033492;28;20120;-80
2021/12/25 03:28:22;;;;;;;2.20;0.70;;;;;;;;;;5018166;28;20022;-80
2021/12/25 03:30:48;;;;;;;1.73;0.80;;;;;;;;;;5017848;28;20113;-80
2021/12/25 03:33:16;;;;;;;2.20;0.82;;;;;;;;;;5041676;28;20030;-80
2021/12/25 03:35:42;;;;;;;4.65;0.73;;;;;;;;;;5027690;28;20030;-80
2021/12/25 03:38:12;;;;;;;3.17;0.93;;;;;;;;;;5027029;28;20111;-81
2021/12/25 03:40:37;;;;;;;0.80;0.70;;;;;;;;;;5018538;28;20030;-81
2021/12/25 03:43:04;;;;;;;1.80;1.05;;;;;;;;;;5033306;28;20525;-79
2021/12/25 03:45:31;;;;;;;1.52;1.00;;;;;;;;;;5018052;28;20030;-81
2021/12/25 03:48:09;;;;;;;2.03;0.90;;;;;;;;;;5017701;28;20050;-80
2021/12/25 03:57:34;;;;;;;;;;;;;;;;;;5018136;28;20064;-80
2021/12/25 03:58:52;;;;;;;1.38;0.70;;;;;;;;;;5016804;28;20028;-80
2021/12/25 04:01:28;;;;;;;1.70;0.95;;;;;;;;;;5032117;28;20053;-79
2021/12/25 04:04:14;;;;;;;4.80;1.35;;;;;;;;;;5016662;28;20041;-79
2021/12/25 04:06:48;;;;;;;3.63;1.30;;;;;;;;;;5016133;28;20028;-79
2021/12/25 04:09:25;;;;;;;;;;;;;;;;;;5016459;28;20026;-79
2021/12/25 04:11:52;;;;;;;2.25;1.58;;;;;;;;;;5016677;28;19913;-80
2021/12/25 04:14:18;;;;;;;2.35;1.58;;;;;;;;;;5016060;28;20414;-80
2021/12/25 04:16:43;;;;;;;3.58;1.40;;;;;;;;;;5015641;28;20092;-80
2021/12/25 04:19:08;;;;;;;3.20;1.83;;;;;;;;;;5015782;28;20022;-79
2021/12/25 04:21:36;;;;;;;4.93;1.60;;;;;;;;;;5030987;28;20026;-79
2021/12/25 04:24:01;;;;;;;5.32;2.08;;;;;;;;;;5016064;28;20144;-80
2021/12/25 04:26:27;;;;;;;3.25;1.85;;;;;;;;;;5015548;28;20104;-79
2021/12/25 04:31:31;;;;;;;4.32;2.15;;;;;;;;;;5016852;28;20029;-79
2021/12/25 05:01:42;;;;;;;4.97;2.47;;;;;;;;;;5016462;28;20040;-80
2021/12/25 05:04:13;;;;;;;4.97;2.65;;;;;;;;;;5016683;28;20161;-79
2021/12/25 05:06:38;;;;;;;4.55;2.50;;;;;;;;;;5015797;28;20037;-79
2021/12/25 05:09:04;;;;;;;4.60;2.30;;;;;;;;;;5015421;28;20033;-79
2021/12/25 05:11:29;;;;;;;3.33;1.88;;;;;;;;;;5015564;28;20061;-79
2021/12/25 05:13:54;;;;;;;5.45;2.35;;;;;;;;;;5015763;28;20032;-79
2021/12/25 05:16:20;;;;;;;3.38;2.15;;;;;;;;;;5015105;28;20443;-80
2021/12/25 05:18:46;;;;;;;2.95;1.48;;;;;;;;;;5029932;28;20073;-79
2021/12/25 05:21:13;;;;;;;1.20;0.82;;;;;;;;;;5029841;28;20029;-80
2021/12/25 05:23:39;;;;;;;2.13;1.60;;;;;;;;;;5015399;28;20033;-79
2021/12/25 05:26:04;;;;;;;6.22;1.90;;;;;;;;;;5015548;28;20096;-79
2021/12/25 05:28:39;;;;;;;6.03;1.17;;;;;;;;;;5015797;28;20073;-79
2021/12/25 05:31:05;;;;;;;6.20;2.50;;;;;;;;;;5030903;28;20498;-79
2021/12/25 05:33:30;;;;;;;2.47;1.63;;;;;;;;;;5030849;28;20056;-79
2021/12/25 05:35:55;;;;;;;2.88;1.77;;;;;;;;;;5015555;28;20018;-79
2021/12/25 05:38:22;;;;;;;2.97;1.90;;;;;;;;;;5015755;28;20030;-79
2021/12/25 05:40:47;;;;;;;3.38;1.92;;;;;;;;;;5029908;28;20040;-80
2021/12/25 05:43:13;;;;;;;3.80;2.25;;;;;;;;;;5015008;28;20547;-79
2021/12/25 05:45:38;;;;;;;3.00;1.95;;;;;;;;;;5014899;28;20108;-79
2021/12/25 05:48:04;;;;;;;3.30;1.75;;;;;;;;;;5019014;28;20379;-80
2021/12/25 05:50:32;;;;;;;3.08;1.88;;;;;;;;;;5017623;28;20030;-78
2021/12/25 05:52:57;;;;;;;3.90;1.77;;;;;;;;;;5034087;28;20022;-79
2021/12/25 05:55:26;;;;;;;2.92;1.83;;;;;;;;;;5018849;28;20038;-79
2021/12/25 05:57:52;;;;;;;3.53;1.75;;;;;;;;;;5018971;28;20107;-80
2021/12/25 06:00:19;;;;;;;5.88;1.55;;;;;;;;;;5033876;28;20025;-79
2021/12/25 06:02:46;;;;;;;4.47;1.48;;;;;;;;;;5018960;28;20037;-80
2021/12/25 06:05:11;;;;;;;2.58;1.48;;;;;;;;;;5018539;28;20044;-79
2021/12/25 06:07:37;;;;;;;3.28;2.00;;;;;;;;;;5016951;28;20471;-79
2021/12/25 06:10:07;;;;;;;2.20;1.17;;;;;;;;;;5018065;28;20549;-79
2021/12/25 06:12:32;;;;;;;2.10;1.48;;;;;;;;;;5033445;28;20028;-79
2021/12/25 06:15:01;;;;;;;1.88;1.38;;;;;;;;;;5018270;28;20053;-79
2021/12/25 06:17:26;;;;;;;4.78;1.83;;;;;;;;;;5017966;28;20028;-79
2021/12/25 06:19:52;;;;;;;6.57;2.00;;;;;;;;;;5018128;28;20104;-78
2021/12/25 06:22:17;;;;;;;7.90;1.80;;;;;;;;;;5017758;28;20104;-79
2021/12/25 06:24:44;;;;;;;4.03;1.65;;;;;;;;;;5018085;28;20026;-79
2021/12/25 06:27:09;;;;;;;3.85;1.73;;;;;;;;;;5017561;28;20028;-79
2021/12/25 06:29:34;;;;;;;2.63;1.58;;;;;;;;;;5018220;28;20025;-79
2021/12/25 06:32:00;;;;;;;3.63;2.20;;;;;;;;;;5018000;28;20054;-80
2021/12/25 06:34:25;;;;;;;3.63;1.60;;;;;;;;;;5016976;28;20029;-79
2021/12/25 06:36:50;;;;;;;2.65;1.70;;;;;;;;;;5033527;28;20026;-80
2021/12/25 06:39:16;;;;;;;3.75;1.75;;;;;;;;;;5018662;28;20018;-80
2021/12/25 06:41:43;;;;;;;3.78;1.65;;;;;;;;;;5018859;28;20033;-80
2021/12/25 06:44:08;;;;;;;1.88;1.40;;;;;;;;;;5033707;28;20061;-80
2021/12/25 06:46:34;;;;;;;3.47;1.73;;;;;;;;;;5018997;28;20066;-80
2021/12/25 06:48:59;;;;;;;5.90;2.28;;;;;;;;;;5017952;28;20038;-80
2021/12/25 06:51:24;;;;;;;6.05;2.00;;;;;;;;;;5019069;28;20053;-80
2021/12/25 06:53:49;;;;;;;3.50;1.90;;;;;;;;;;5019077;28;20017;-80
2021/12/25 06:56:15;;;;;;;2.63;1.50;;;;;;;;;;5034012;28;20026;-80
2021/12/25 06:58:40;;;;;;;3.97;1.63;;;;;;;;;;5034122;28;20037;-80
2021/12/25 07:01:05;;;;;;;3.83;2.17;;;;;;;;;;5034347;28;20026;-79
2021/12/25 07:03:31;;;;;;;9.57;1.67;;;;;;;;;;5018929;28;20380;-81
2021/12/25 07:05:56;;;;;;;2.75;1.58;;;;;;;;;;5018823;28;20113;-80
2021/12/25 07:08:22;;;;;;;2.20;1.23;;;;;;;;;;5017423;28;20072;-80
2021/12/25 07:10:47;;;;;;;3.20;0.90;;;;;;;;;;5017468;28;20030;-81
2021/12/25 07:13:17;;;;;;;1.27;0.73;;;;;;;;;;5017895;28;20033;-80
2021/12/25 07:15:43;;;;;;;4.85;1.38;;;;;;;;;;5017644;28;20026;-80
2021/12/25 07:18:08;;;;;;;1.02;0.90;;;;;;;;;;5018073;28;20033;-80
2021/12/25 07:20:34;;;;;;;3.10;1.00;;;;;;;;;;5019041;28;20033;-79
2021/12/25 07:22:59;;;;;;;1.35;0.68;;;;;;;;;;5017863;28;20471;-79
2021/12/25 07:25:24;;;;;;;1.10;0.55;;;;;;;;;;5018045;28;20033;-80
2021/12/25 07:27:50;;;;;;;1.35;0.80;;;;;;;;;;5016685;28;20026;-79
2021/12/25 07:30:15;;;;;;;0.98;0.70;;;;;;;;;;5017475;28;20028;-80
2021/12/25 07:32:40;;;;;;;3.60;1.25;;;;;;;;;;5016966;28;20026;-80
2021/12/25 07:35:06;;;;;;;1.27;0.85;;;;;;;;;;5017758;28;20100;-80
2021/12/25 07:37:33;;;;;;;0.85;0.32;;;;;;;;;;5017183;28;20483;-80
2021/12/25 07:40:00;;;;;;;1.80;0.68;;;;;;;;;;5017281;28;20030;-79
2021/12/25 07:42:26;;;;;;;0.57;0.38;;;;;;;;;;5017164;28;20050;-80
2021/12/25 07:44:55;;;;;;;2.95;0.85;;;;;;;;;;5016312;28;20502;-80
2021/12/25 07:47:21;;;;;;;0.85;0.52;;;;;;;;;;5016197;28;20037;-79
2021/12/25 07:49:47;;;;;;;1.55;0.80;;;;;;;;;;5016434;28;20041;-80
2021/12/25 07:52:12;;;;;;;2.67;0.68;;;;;;;;;;5016405;28;20030;-80
2021/12/25 07:54:38;;;;;;;3.92;0.70;;;;;;;;;;5016434;28;20030;-79
2021/12/25 07:57:03;;;;;;;0.68;0.63;;;;;;;;;;5016161;28;20045;-80
2021/12/25 07:59:28;;;;;;;1.00;0.50;;;;;;;;;;5017484;28;20025;-80
2021/12/25 08:01:53;;;;;;;4.80;0.60;;;;;;;;;;5015804;28;20446;-80
2021/12/25 08:04:19;;;;;;;3.80;0.70;;;;;;;;;;5017117;28;20032;-80
2021/12/25 08:06:44;;;;;;;2.30;0.70;;;;;;;;;;5017369;28;20026;-80
2021/12/25 08:09:09;;;;;;;1.65;0.60;;;;;;;;;;5016567;28;20030;-80
2021/12/25 08:11:35;;;;;;;1.75;0.68;;;;;;;;;;5017433;28;20483;-80
2021/12/25 08:14:00;;;;;;;0.98;0.70;;;;;;;;;;5017222;28;20159;-80
2021/12/25 08:16:25;;;;;;;2.40;0.82;;;;;;;;;;5016934;28;20026;-79
2021/12/25 08:18:51;;;;;;;0.85;0.40;;;;;;;;;;5016102;28;20022;-80
2021/12/25 08:21:16;;;;;;;1.50;0.50;;;;;;;;;;5016261;28;20109;-80
2021/12/25 08:23:41;;;;;;;2.05;0.80;;;;;;;;;;5015351;28;20030;-80
2021/12/25 08:26:07;;;;;;;2.50;0.60;;;;;;;;;;5015561;28;20399;-79
2021/12/25 08:28:33;;;;;;;1.50;0.60;;;;;;;;;;5030052;28;20029;-79
2021/12/25 08:30:59;;;;;;;0.45;0.40;;;;;;;;;;5015063;28;20041;-78
2021/12/25 08:33:24;;;;;;;2.33;0.90;;;;;;;;;;5014742;28;20495;-78
2021/12/25 08:35:49;;;;;;;2.45;1.10;;;;;;;;;;5015199;28;20033;-78
2021/12/25 08:38:15;;;;;;;1.80;0.85;;;;;;;;;;5014984;28;20021;-78
2021/12/25 08:40:42;;;;;;;1.85;0.85;;;;;;;;;;5015368;28;20032;-79
2021/12/25 08:43:08;;;;;;;1.20;0.75;;;;;;;;;;5015271;28;20068;-79
2021/12/25 08:45:42;;;;;;;5.20;0.93;;;;;;;;;;5030289;28;20030;-79
2021/12/25 08:48:17;;;;;;;1.30;0.80;;;;;;;;;;5015607;28;20037;-77
2021/12/25 08:50:52;;;;;;;1.20;0.88;;;;;;;;;;5017054;28;20026;-83
2021/12/25 08:53:19;;;;;;;1.48;0.90;;;;;;;;;;5016242;28;20038;-81
2021/12/25 08:55:46;;;;;;;2.38;0.82;;;;;;;;;;5015332;28;20119;-80
2021/12/25 08:58:11;;;;;;;1.15;0.98;;;;;;;;;;5031591;28;20022;-79
2021/12/25 09:00:37;;;;;;;2.70;1.05;;;;;;;;;;5017505;28;20080;-81
2021/12/25 09:03:02;;;;;;;1.77;0.90;;;;;;;;;;5018777;28;20026;-81
2021/12/25 09:05:28;;;;;;;2.05;0.85;;;;;;;;;;5032032;28;20042;-80
2021/12/25 09:07:53;;;;;;;1.67;0.98;;;;;;;;;;5016198;28;20426;-80
2021/12/25 09:10:19;;;;;;;1.13;0.70;;;;;;;;;;5019106;28;20025;-79
2021/12/25 09:12:45;;;;;;;2.22;0.70;;;;;;;;;;5017135;28;20026;-80
2021/12/25 09:15:12;;;;;;;1.48;0.90;;;;;;;;;;5015773;28;20053;-81
2021/12/25 09:17:38;;;;;;;2.63;1.20;;;;;;;;;;5030425;28;20149;-81
2021/12/25 09:20:05;;;;;;;1.30;0.80;;;;;;;;;;5014013;28;20113;-81
2021/12/25 09:22:31;;;;;;;1.75;0.85;;;;;;;;;;5033476;28;20080;-81
2021/12/25 09:24:56;;;;;;;3.60;1.10;;;;;;;;;;5017311;28;20021;-81
2021/12/25 09:27:21;;;;;;;2.17;1.13;;;;;;;;;;5019272;28;20053;-81
2021/12/25 09:29:47;;;;;;;1.85;0.73;;;;;;;;;;5033825;28;20538;-81
2021/12/25 09:32:13;;;;;;;0.68;0.47;;;;;;;;;;5033636;28;20475;-82
2021/12/25 09:34:38;;;;;;;4.10;1.13;;;;;;;;;;5018989;28;20092;-80
2021/12/25 09:37:04;;;;;;;2.28;1.10;;;;;;;;;;5018976;28;20025;-82
2021/12/25 09:39:29;;;;;;;2.63;1.20;;;;;;;;;;5021699;28;20024;-81
2021/12/25 09:41:54;;;;;;;1.40;0.80;;;;;;;;;;5037658;28;20105;-77
2021/12/25 09:44:20;;;;;;;6.88;1.70;;;;;;;;;;5019519;28;20498;-81
2021/12/25 09:46:45;;;;;;;3.15;1.60;;;;;;;;;;5019559;28;20468;-83
2021/12/25 09:49:11;;;;;;;6.30;1.92;;;;;;;;;;5035168;28;20022;-82
2021/12/25 09:51:36;;;;;;;4.10;1.55;;;;;;;;;;5019567;28;20030;-81
2021/12/25 09:54:05;;;;;;;1.73;1.05;;;;;;;;;;5019396;28;20030;-82
2021/12/25 09:56:30;;;;;;;4.82;1.48;;;;;;;;;;5018769;28;20018;-82
2021/12/25 09:58:55;;;;;;;6.32;2.15;;;;;;;;;;5018308;28;20057;-81
2021/12/25 10:01:40;;;;;;;1.77;0.93;;;;;;;;;;5018134;28;20092;-81
2021/12/25 10:04:07;;;;;;;2.75;0.70;;;;;;;;;;5034298;28;20034;-79
2021/12/25 10:06:36;;;;;;;5.65;1.67;;;;;;;;;;5019079;28;20053;-81
2021/12/25 10:09:20;;;;;;;3.00;1.20;;;;;;;;;;5019118;28;20029;-80
2021/12/25 10:12:07;;;;;;;3.88;1.35;;;;;;;;;;5024007;28;20030;-79
2021/12/25 10:14:33;;;;;;;2.58;1.05;;;;;;;;;;5021827;28;20025;-81
2021/12/25 10:17:11;;;;;;;1.95;0.90;;;;;;;;;;5034910;28;20034;-82
2021/12/25 10:19:37;;;;;;;2.75;1.20;;;;;;;;;;5034138;28;20022;-82
2021/12/25 10:22:08;;;;;;;1.67;0.82;;;;;;;;;;5035805;28;20033;-81
2021/12/25 10:24:41;;;;;;;0.90;0.75;;;;;;;;;;5035055;28;20471;-82
2021/12/25 10:27:13;;;;;;;3.63;1.10;;;;;;;;;;5034717;28;20083;-80
2021/12/25 10:29:38;;;;;;;2.08;1.00;;;;;;;;;;5020856;28;20038;-75
2021/12/25 10:32:19;;;;;;;2.88;1.00;;;;;;;;;;5019393;28;20025;-75
2021/12/25 10:34:46;;;;;;;5.05;1.40;;;;;;;;;;5019085;28;20021;-74
2021/12/25 10:37:13;;;;;;;3.90;1.20;;;;;;;;;;5018180;28;20030;-80
2021/12/25 10:39:40;;;;;;;3.92;1.50;;;;;;;;;;5018544;28;20022;-80
2021/12/25 10:42:16;;;;;;;1.65;0.80;;;;;;;;;;5016925;28;20084;-81
2021/12/25 10:44:48;;;;;;;2.45;1.38;;;;;;;;;;5032689;28;20518;-81
2021/12/25 10:47:27;;;;;;;3.83;1.50;;;;;;;;;;5020026;28;20058;-81
2021/12/25 10:50:01;;;;;;;1.65;1.10;;;;;;;;;;5037929;28;20026;-79
2021/12/25 10:52:39;;;;;;;1.98;0.80;;;;;;;;;;5024632;28;20049;-81
2021/12/25 10:55:20;;;;;;;3.78;1.13;;;;;;;;;;5025208;28;20148;-81
2021/12/25 10:57:47;;;;;;;6.60;1.40;;;;;;;;;;5021607;28;20026;-81
2021/12/25 11:00:22;;;;;;;3.35;1.13;;;;;;;;;;5020574;28;20448;-80
2021/12/25 11:03:00;;;;;;;6.07;1.52;;;;;;;;;;5023089;28;20034;-79
2021/12/25 11:05:30;;;;;;;3.13;1.80;;;;;;;;;;5035832;28;20040;-80
2021/12/25 11:08:12;;;;;;;4.05;2.40;;;;;;;;;;5036559;28;20510;-80
2021/12/25 11:10:47;;;;;;;1.45;1.10;;;;;;;;;;5021845;28;20040;-81
2021/12/25 11:13:42;;;;;;;6.38;1.35;;;;;;;;;;5021343;28;20048;-79
2021/12/25 11:16:27;;;;;;;1.48;1.00;;;;;;;;;;5019824;28;20046;-80
2021/12/25 11:19:10;;;;;;;2.70;1.40;;;;;;;;;;5019751;28;20046;-80
2021/12/25 11:21:36;;;;;;;2.78;1.35;;;;;;;;;;5020016;28;20057;-81
2021/12/25 11:24:17;;;;;;;2.45;1.60;;;;;;;;;;5020018;28;20080;-81
2021/12/25 11:26:47;;;;;;;2.55;1.33;;;;;;;;;;5019786;28;20025;-80
2021/12/25 11:29:16;;;;;;;2.20;1.30;;;;;;;;;;5019504;28;20030;-81
2021/12/25 11:31:43;;;;;;;1.40;0.77;;;;;;;;;;5018517;28;20029;-81
2021/12/25 11:34:08;;;;;;;3.38;1.40;;;;;;;;;;5019268;28;20080;-80
2021/12/25 11:36:45;;;;;;;5.10;1.58;;;;;;;;;;5019076;28;20026;-80
2021/12/25 11:39:11;;;;;;;1.75;1.08;;;;;;;;;;5018137;28;20028;-81
2021/12/25 11:41:37;;;;;;;2.25;1.27;;;;;;;;;;5018150;28;20029;-81
2021/12/25 11:44:06;;;;;;;3.17;1.42;;;;;;;;;;5033415;28;20089;-81
2021/12/25 11:46:40;;;;;;;2.85;1.30;;;;;;;;;;5017378;28;20026;-80
2021/12/25 11:49:09;;;;;;;3.53;1.60;;;;;;;;;;5017670;28;20038;-81
2021/12/25 11:51:35;;;;;;;1.63;1.05;;;;;;;;;;5018153;28;20085;-80
2021/12/25 11:56:42;;;;;;;4.22;1.30;;;;;;;;;;5018617;28;20032;-81
2021/12/25 11:59:19;;;;;;;4.07;1.65;;;;;;;;;;5018988;28;20025;-81
2021/12/25 12:01:49;;;;;;;3.30;1.63;;;;;;;;;;5017334;28;20030;-81
2021/12/25 12:04:26;;;;;;;2.08;1.20;;;;;;;;;;5018061;28;20104;-81
2021/12/25 12:07:13;;;;;;;2.42;1.48;;;;;;;;;;5015740;28;20118;-82
2021/12/25 12:09:44;;;;;;;3.80;1.45;;;;;;;;;;5017185;28;20033;-79
2021/12/25 12:12:28;;;;;;;3.60;1.30;;;;;;;;;;5016554;28;20121;-81
2021/12/25 12:15:14;;;;;;;;;;;;;;;;;;5017081;28;20053;-80
2021/12/25 12:17:39;;;;;;;2.50;0.88;;;;;;;;;;5016660;28;19913;-80
2021/12/25 12:20:06;;;;;;;4.60;1.70;;;;;;;;;;5016614;28;20101;-80
2021/12/25 12:22:46;;;;;;;7.65;1.17;;;;;;;;;;5031803;28;20057;-81
2021/12/25 12:25:26;;;;;;;4.75;1.80;;;;;;;;;;5017006;28;20034;-80
2021/12/25 12:27:58;;;;;;;3.58;1.15;;;;;;;;;;5032218;28;20120;-81
2021/12/25 12:30:33;;;;;;;3.13;1.40;;;;;;;;;;5016312;28;20033;-80
2021/12/25 12:33:00;;;;;;;3.25;1.35;;;;;;;;;;5016286;28;20080;-81
2021/12/25 12:35:35;;;;;;;3.40;1.27;;;;;;;;;;5017398;28;20022;-81
2021/12/25 12:38:28;;;;;;;3.65;1.45;;;;;;;;;;5017433;28;20050;-81
2021/12/25 12:41:10;;;;;;;2.67;1.70;;;;;;;;;;5017128;28;20032;-80
2021/12/25 12:43:54;;;;;;;4.40;1.70;;;;;;;;;;5017469;28;20383;-81
2021/12/25 12:46:19;;;;;;;3.50;1.77;;;;;;;;;;5017267;28;20442;-82
2021/12/25 12:49:03;;;;;;;4.70;1.83;;;;;;;;;;5032172;28;20022;-81
2021/12/25 12:51:28;;;;;;;4.43;1.80;;;;;;;;;;5017443;28;20036;-81
2021/12/25 12:53:53;;;;;;;3.53;1.52;;;;;;;;;;5018354;28;20263;-81
2021/12/25 12:56:21;;;;;;;3.58;1.40;;;;;;;;;;5032647;28;20025;-80
2021/12/25 12:58:57;;;;;;;4.03;1.80;;;;;;;;;;5031239;28;20018;-80
2021/12/25 13:01:24;;;;;;;5.22;1.75;;;;;;;;;;5016119;28;20149;-80
2021/12/25 13:04:02;;;;;;;5.15;1.73;;;;;;;;;;5030942;28;20033;-81
2021/12/25 13:06:29;;;;;;;6.57;1.90;;;;;;;;;;5031290;28;20022;-80
2021/12/25 13:08:58;;;;;;;6.70;1.70;;;;;;;;;;5031374;28;20108;-81
2021/12/25 13:11:32;;;;;;;2.78;1.40;;;;;;;;;;5015939;28;20105;-81
2021/12/25 13:14:00;;;;;;;5.80;1.88;;;;;;;;;;5015888;28;20476;-81
2021/12/25 13:16:34;;;;;;;3.92;1.80;;;;;;;;;;5016079;28;20076;-80
2021/12/25 13:18:59;;;;;;;;;;;;;;;;;;5017365;28;20025;-80
2021/12/25 13:21:27;;;;;;;4.43;1.80;;;;;;;;;;5016272;28;19915;-81
2021/12/25 13:23:57;;;;;;;3.08;1.35;;;;;;;;;;5016031;28;20598;-81
2021/12/25 13:26:26;;;;;;;6.35;1.77;;;;;;;;;;5032226;28;20084;-80
2021/12/25 13:28:52;;;;;;;2.92;1.75;;;;;;;;;;5015659;28;20021;-82
2021/12/25 13:31:22;;;;;;;3.97;1.48;;;;;;;;;;5017130;28;20022;-83
2021/12/25 13:33:51;;;;;;;5.53;1.60;;;;;;;;;;5014018;28;20372;-80
2021/12/25 13:36:22;;;;;;;5.00;1.73;;;;;;;;;;5016159;28;20037;-81
2021/12/25 13:38:57;;;;;;;2.42;1.38;;;;;;;;;;5015006;28;20022;-80
2021/12/25 13:41:38;;;;;;;2.60;1.48;;;;;;;;;;5016877;28;20029;-81
2021/12/25 13:44:18;;;;;;;5.32;2.45;;;;;;;;;;5015779;28;20116;-81
2021/12/25 13:46:48;;;;;;;5.25;2.08;;;;;;;;;;5014914;28;20061;-81
2021/12/25 13:49:33;;;;;;;4.97;2.13;;;;;;;;;;5016301;28;20128;-81
2021/12/25 13:52:07;;;;;;;3.55;1.80;;;;;;;;;;5031295;28;20026;-80
2021/12/25 13:54:34;;;;;;;6.80;2.03;;;;;;;;;;5015115;28;20093;-80
2021/12/25 13:57:00;;;;;;;4.97;2.70;;;;;;;;;;5015564;28;20541;-80
2021/12/25 13:59:25;;;;;;;6.47;2.38;;;;;;;;;;5031205;28;20018;-81
2021/12/25 14:02:00;;;;;;;10.70;3.45;;;;;;;;;;5016802;28;20098;-80
2021/12/25 14:04:25;;;;;;;4.97;2.38;;;;;;;;;;5015370;28;20038;-79
2021/12/25 14:06:51;;;;;;;9.00;3.88;;;;;;;;;;5016521;28;20037;-80
2021/12/25 14:09:16;;;;;;;11.00;3.65;;;;;;;;;;5020085;28;20026;-80
2021/12/25 14:11:54;;;;;;;4.22;2.03;;;;;;;;;;5019803;28;20033;-82
2021/12/25 14:14:21;;;;;;;4.65;2.17;;;;;;;;;;5019872;28;20026;-80
2021/12/25 14:16:47;;;;;;;7.93;3.05;;;;;;;;;;5020069;28;20026;-81
2021/12/25 14:19:13;;;;;;;7.28;2.47;;;;;;;;;;5034972;28;20036;-80
2021/12/25 14:21:40;;;;;;;6.90;2.70;;;;;;;;;;5019463;28;20037;-81
2021/12/25 14:24:13;;;;;;;3.58;1.30;;;;;;;;;;5019399;28;20053;-81
2021/12/25 14:26:39;;;;;;;3.72;2.33;;;;;;;;;;5035044;28;20446;-81
2021/12/25 14:29:18;;;;;;;8.73;1.80;;;;;;;;;;5019712;28;20598;-81
2021/12/25 14:31:43;;;;;;;3.28;1.25;;;;;;;;;;5019635;28;20462;-81
2021/12/25 14:34:09;;;;;;;5.75;1.95;;;;;;;;;;5019321;28;20032;-80
2021/12/25 14:36:41;;;;;;;4.72;1.85;;;;;;;;;;5033984;28;20018;-81
2021/12/25 14:39:08;;;;;;;2.42;1.38;;;;;;;;;;5033740;28;20029;-80
2021/12/25 14:41:35;;;;;;;4.32;2.33;;;;;;;;;;5018413;28;20034;-80
2021/12/25 14:44:22;;;;;;;7.93;2.90;;;;;;;;;;5017902;28;20037;-80
2021/12/25 14:47:03;;;;;;;5.57;2.40;;;;;;;;;;5018559;28;20103;-80
2021/12/25 14:49:39;;;;;;;6.07;2.35;;;;;;;;;;5016782;28;20021;-79
2021/12/25 14:52:04;;;;;;;6.90;2.60;;;;;;;;;;5018953;28;20117;-80
2021/12/25 14:54:31;;;;;;;5.97;2.00;;;;;;;;;;5018828;28;20061;-81
2021/12/25 14:56:58;;;;;;;10.38;2.65;;;;;;;;;;5018915;28;20459;-81
2021/12/25 14:59:25;;;;;;;6.00;2.38;;;;;;;;;;5033354;28;20029;-79
2021/12/25 15:01:53;;;;;;;3.20;1.80;;;;;;;;;;5032673;28;20120;-81
2021/12/25 15:04:22;;;;;;;5.68;2.15;;;;;;;;;;5017761;28;20038;-80
2021/12/25 15:06:50;;;;;;;5.82;2.22;;;;;;;;;;5033611;28;20030;-80
2021/12/25 15:09:19;;;;;;;6.28;2.72;;;;;;;;;;5018012;28;20053;-81
2021/12/25 15:11:46;;;;;;;4.45;2.42;;;;;;;;;;5016625;28;20511;-79
2021/12/25 15:14:17;;;;;;;6.72;2.50;;;;;;;;;;5033167;28;20025;-80
2021/12/25 15:16:48;;;;;;;7.95;3.17;;;;;;;;;;5018095;28;20079;-80
2021/12/25 15:19:44;;;;;;;3.95;2.10;;;;;;;;;;5017403;28;20028;-80
2021/12/25 15:22:21;;;;;;;5.10;2.38;;;;;;;;;;5016192;28;20048;-80
2021/12/25 15:25:02;;;;;;;7.68;3.47;;;;;;;;;;5018309;28;20025;-80
2021/12/25 15:27:47;;;;;;;8.15;3.58;;;;;;;;;;5018444;28;20036;-80
2021/12/25 15:30:16;;;;;;;25.77;5.05;;;;;;;;;;5018676;28;20029;-79
2021/12/25 15:32:45;;;;;;;6.32;2.08;;;;;;;;;;5019300;28;20399;-80
2021/12/25 15:35:14;;;;;;;8.15;2.42;;;;;;;;;;5017772;28;20092;-80
2021/12/25 15:37:50;;;;;;;4.55;2.35;;;;;;;;;;5035229;28;20022;-81
2021/12/25 15:40:19;;;;;;;7.90;3.20;;;;;;;;;;5020004;28;20476;-80
2021/12/25 15:42:44;;;;;;;5.10;3.08;;;;;;;;;;5021088;28;20028;-80
2021/12/25 15:45:11;;;;;;;7.03;2.58;;;;;;;;;;5021157;28;20093;-81
2021/12/25 15:47:36;;;;;;;6.47;2.90;;;;;;;;;;5020869;28;20081;-81
2021/12/25 15:50:03;;;;;;;4.28;1.88;;;;;;;;;;5034474;28;20061;-81
2021/12/25 15:52:29;;;;;;;7.00;3.45;;;;;;;;;;5019311;28;20069;-81
2021/12/25 15:54:54;;;;;;;3.00;1.88;;;;;;;;;;5019867;28;20054;-81
2021/12/25 15:57:20;;;;;;;10.27;3.10;;;;;;;;;;5021393;28;20030;-81
2021/12/25 15:59:45;;;;;;;6.55;2.95;;;;;;;;;;5036269;28;20026;-81